Time;durP1;ratioP1;P1;durP2;ratioP2;P2;SDS_P1;SDS_P2;PMS_P1;PMS_P2;Temp;Humidity;BMP_temperature;BMP_pressure;BME280_temperature;BME280_humidity;BME280_pressure;Samples;Min_cycle;Max_cycle;Signal;HPM_P1;HPM_P2
2022/05/09 00:01:28;;;;;;;6.10;3.40;;;;;;;;;;5015158;28;20383;-51
2022/05/09 00:03:55;;;;;;;7.63;3.47;;;;;;;;;;5017812;28;20675;-56
2022/05/09 00:06:21;;;;;;;6.10;3.58;;;;;;;;;;5016923;28;20569;-51
2022/05/09 00:08:47;;;;;;;8.10;3.63;;;;;;;;;;5016505;28;20478;-56
2022/05/09 00:11:13;;;;;;;7.78;3.30;;;;;;;;;;5015768;28;20407;-53
2022/05/09 00:13:39;;;;;;;7.85;3.30;;;;;;;;;;5031126;28;20383;-57
2022/05/09 00:16:06;;;;;;;6.15;3.33;;;;;;;;;;5033148;28;20779;-52
2022/05/09 00:18:32;;;;;;;6.15;3.40;;;;;;;;;;5015370;28;20776;-60
2022/05/09 00:20:58;;;;;;;8.87;3.30;;;;;;;;;;5032061;28;20504;-55
2022/05/09 00:23:24;;;;;;;6.97;3.20;;;;;;;;;;5031928;28;20403;-55
2022/05/09 00:25:50;;;;;;;9.07;3.70;;;;;;;;;;5016126;28;20427;-53
2022/05/09 00:28:16;;;;;;;7.15;3.35;;;;;;;;;;5016385;28;20480;-55
2022/05/09 00:30:42;;;;;;;6.55;2.95;;;;;;;;;;5017545;28;20472;-56
2022/05/09 00:33:08;;;;;;;8.40;3.63;;;;;;;;;;5018842;28;20403;-51
2022/05/09 00:35:36;;;;;;;7.68;3.30;;;;;;;;;;5020113;28;20398;-54
2022/05/09 00:38:02;;;;;;;7.05;3.15;;;;;;;;;;5020039;28;20825;-53
2022/05/09 00:40:28;;;;;;;6.85;3.00;;;;;;;;;;5017823;28;20399;-52
2022/05/09 00:42:55;;;;;;;6.63;3.10;;;;;;;;;;5018827;28;20413;-56
2022/05/09 00:45:23;;;;;;;5.57;2.90;;;;;;;;;;5016273;28;20386;-57
2022/05/09 00:47:50;;;;;;;6.45;2.70;;;;;;;;;;5034565;28;20391;-54
2022/05/09 00:50:18;;;;;;;8.35;2.92;;;;;;;;;;5033547;28;20419;-54
2022/05/09 00:52:59;;;;;;;4.95;2.58;;;;;;;;;;5017596;28;20429;-56
2022/05/09 00:55:35;;;;;;;6.60;2.90;;;;;;;;;;5016660;28;20386;-52
2022/05/09 00:58:12;;;;;;;5.57;2.95;;;;;;;;;;5017085;28;20379;-54
2022/05/09 01:00:40;;;;;;;6.88;2.72;;;;;;;;;;5016852;28;20390;-52
2022/05/09 01:03:08;;;;;;;6.03;2.80;;;;;;;;;;5014586;28;20548;-52
2022/05/09 01:05:34;;;;;;;7.32;2.72;;;;;;;;;;5014294;28;20399;-53
2022/05/09 01:08:00;;;;;;;5.07;2.70;;;;;;;;;;5015405;28;20394;-50
2022/05/09 01:10:30;;;;;;;8.43;2.90;;;;;;;;;;5013493;28;20840;-55
2022/05/09 01:12:56;;;;;;;9.48;3.13;;;;;;;;;;5012656;28;20441;-56
2022/05/09 01:15:22;;;;;;;7.32;3.25;;;;;;;;;;5011102;28;20821;-51
2022/05/09 01:17:50;;;;;;;7.20;3.00;;;;;;;;;;5028692;28;20806;-53
2022/05/09 01:20:17;;;;;;;8.75;3.40;;;;;;;;;;5014470;28;20941;-53
2022/05/09 01:22:44;;;;;;;8.88;3.65;;;;;;;;;;5014192;28;20489;-54
2022/05/09 01:25:12;;;;;;;7.03;3.13;;;;;;;;;;5016205;28;20566;-56
2022/05/09 01:27:40;;;;;;;7.97;3.22;;;;;;;;;;5018320;28;20437;-50
2022/05/09 01:30:06;;;;;;;7.90;3.15;;;;;;;;;;5034808;28;20410;-53
2022/05/09 01:32:35;;;;;;;7.07;2.90;;;;;;;;;;5034227;28;21180;-56
2022/05/09 01:35:10;;;;;;;8.33;3.60;;;;;;;;;;5031037;28;20725;-54
2022/05/09 01:37:38;;;;;;;6.95;3.05;;;;;;;;;;5015274;28;20402;-53
2022/05/09 01:40:04;;;;;;;5.93;3.00;;;;;;;;;;5016118;28;20391;-53
2022/05/09 01:42:30;;;;;;;5.35;2.63;;;;;;;;;;5017687;28;20751;-53
2022/05/09 01:44:56;;;;;;;6.28;2.78;;;;;;;;;;5016519;28;20896;-54
2022/05/09 01:50:14;;;;;;;7.18;2.92;;;;;;;;;;5011864;28;20422;-55
2022/05/09 01:52:40;;;;;;;7.72;3.17;;;;;;;;;;5017765;28;20403;-55
2022/05/09 01:55:06;;;;;;;7.38;2.75;;;;;;;;;;5034510;28;20793;-51
2022/05/09 01:57:32;;;;;;;10.68;3.08;;;;;;;;;;5017632;28;20469;-56
2022/05/09 01:59:59;;;;;;;8.30;2.83;;;;;;;;;;5033721;28;20717;-54
2022/05/09 02:02:25;;;;;;;8.35;3.10;;;;;;;;;;5016371;28;20375;-56
2022/05/09 02:04:51;;;;;;;8.05;3.35;;;;;;;;;;5033442;28;20518;-54
2022/05/09 02:07:19;;;;;;;5.78;2.63;;;;;;;;;;5014847;28;20683;-55
2022/05/09 02:09:46;;;;;;;6.80;2.83;;;;;;;;;;5015389;28;20649;-55
2022/05/09 02:12:13;;;;;;;7.47;3.03;;;;;;;;;;5014912;28;20395;-54
2022/05/09 02:14:40;;;;;;;10.80;3.22;;;;;;;;;;5014566;28;20782;-56
2022/05/09 02:17:06;;;;;;;8.05;3.25;;;;;;;;;;5013690;28;20391;-52
2022/05/09 02:19:34;;;;;;;7.90;3.22;;;;;;;;;;5030721;28;20768;-54
2022/05/09 02:22:00;;;;;;;6.38;2.85;;;;;;;;;;5013668;28;20505;-52
2022/05/09 02:24:27;;;;;;;7.07;2.60;;;;;;;;;;5029991;28;20444;-56
2022/05/09 02:26:54;;;;;;;7.72;3.03;;;;;;;;;;5033082;28;20379;-53
2022/05/09 02:29:20;;;;;;;7.63;2.83;;;;;;;;;;5016600;28;20787;-54
2022/05/09 02:31:46;;;;;;;7.23;3.17;;;;;;;;;;5016012;28;20386;-56
2022/05/09 02:34:12;;;;;;;7.55;3.03;;;;;;;;;;5015509;28;20413;-55
2022/05/09 02:36:38;;;;;;;6.25;3.00;;;;;;;;;;5032819;28;20453;-53
2022/05/09 02:39:04;;;;;;;7.20;2.97;;;;;;;;;;5016625;28;20387;-53
2022/05/09 02:41:30;;;;;;;7.40;2.80;;;;;;;;;;5015822;28;20464;-54
2022/05/09 02:43:57;;;;;;;6.85;3.03;;;;;;;;;;5015626;28;20395;-54
2022/05/09 02:46:23;;;;;;;7.22;2.65;;;;;;;;;;5015605;28;20394;-51
2022/05/09 02:48:49;;;;;;;7.82;2.88;;;;;;;;;;5032955;28;20383;-55
2022/05/09 02:51:15;;;;;;;6.80;2.90;;;;;;;;;;5015103;28;20430;-53
2022/05/09 02:53:41;;;;;;;6.78;2.90;;;;;;;;;;5014753;28;20482;-57
2022/05/09 02:56:08;;;;;;;7.00;3.10;;;;;;;;;;5015453;28;20410;-54
2022/05/09 02:58:34;;;;;;;8.05;3.13;;;;;;;;;;5014830;28;20391;-52
2022/05/09 03:01:00;;;;;;;9.48;2.95;;;;;;;;;;5014405;28;20402;-53
2022/05/09 03:06:11;;;;;;;7.03;3.05;;;;;;;;;;5033634;28;20402;-52
2022/05/09 03:08:38;;;;;;;8.50;2.95;;;;;;;;;;5017197;28;20687;-55
2022/05/09 03:11:04;;;;;;;7.63;2.90;;;;;;;;;;5015143;28;20469;-54
2022/05/09 03:13:30;;;;;;;9.35;2.83;;;;;;;;;;5029548;28;20375;-55
2022/05/09 03:15:58;;;;;;;9.95;2.80;;;;;;;;;;5012186;28;20671;-54
2022/05/09 03:18:24;;;;;;;7.20;2.42;;;;;;;;;;5010926;28;20444;-56
2022/05/09 03:20:51;;;;;;;7.30;2.80;;;;;;;;;;5011514;28;20416;-54
2022/05/09 03:23:17;;;;;;;8.27;2.50;;;;;;;;;;5011970;28;20748;-54
2022/05/09 03:25:43;;;;;;;6.27;2.63;;;;;;;;;;5029679;28;20994;-56
2022/05/09 03:28:14;;;;;;;6.57;2.63;;;;;;;;;;5030606;28;20398;-53
2022/05/09 03:30:40;;;;;;;6.15;2.90;;;;;;;;;;5013259;28;20745;-53
2022/05/09 03:33:07;;;;;;;6.05;2.85;;;;;;;;;;5013490;28;20703;-53
2022/05/09 03:35:34;;;;;;;7.60;2.65;;;;;;;;;;5029815;28;20375;-54
2022/05/09 03:38:00;;;;;;;6.20;2.83;;;;;;;;;;5013408;28;20506;-49
2022/05/09 03:40:26;;;;;;;7.90;2.53;;;;;;;;;;5014078;28;20779;-53
2022/05/09 03:42:52;;;;;;;7.93;3.10;;;;;;;;;;5013751;28;20702;-51
2022/05/09 03:45:18;;;;;;;8.23;2.80;;;;;;;;;;5014534;28;20876;-52
2022/05/09 03:47:44;;;;;;;8.43;2.70;;;;;;;;;;5014772;28;20379;-51
2022/05/09 03:50:11;;;;;;;8.50;2.80;;;;;;;;;;5031057;28;20430;-54
2022/05/09 03:52:37;;;;;;;7.85;2.67;;;;;;;;;;5030628;28;20741;-56
2022/05/09 03:55:16;;;;;;;6.53;2.50;;;;;;;;;;5017715;28;20752;-55
2022/05/09 03:57:49;;;;;;;7.83;2.90;;;;;;;;;;5033213;28;20379;-55
2022/05/09 04:00:16;;;;;;;6.38;2.60;;;;;;;;;;5014905;28;20498;-53
2022/05/09 04:02:43;;;;;;;7.20;2.83;;;;;;;;;;5030938;28;20379;-51
2022/05/09 04:05:16;;;;;;;6.57;2.80;;;;;;;;;;5031260;28;20433;-51
2022/05/09 04:07:43;;;;;;;7.60;2.85;;;;;;;;;;5016419;28;20403;-56
2022/05/09 04:10:09;;;;;;;10.20;3.20;;;;;;;;;;5033040;28;20439;-54
2022/05/09 04:12:35;;;;;;;8.27;3.00;;;;;;;;;;5016453;28;20383;-55
2022/05/09 04:17:46;;;;;;;7.28;3.22;;;;;;;;;;5031327;28;20500;-54
2022/05/09 04:20:12;;;;;;;9.15;3.05;;;;;;;;;;5015435;28;20383;-50
2022/05/09 04:22:40;;;;;;;8.13;3.33;;;;;;;;;;5014304;28;20399;-51
2022/05/09 04:25:06;;;;;;;8.07;3.05;;;;;;;;;;5011754;28;20448;-54
2022/05/09 04:27:33;;;;;;;8.60;3.20;;;;;;;;;;5030175;28;20734;-54
2022/05/09 04:29:59;;;;;;;8.13;3.13;;;;;;;;;;5030648;28;20815;-52
2022/05/09 04:32:25;;;;;;;8.57;3.35;;;;;;;;;;5012862;28;20387;-55
2022/05/09 04:34:51;;;;;;;6.68;2.83;;;;;;;;;;5030548;28;20678;-52
2022/05/09 04:37:17;;;;;;;7.15;3.03;;;;;;;;;;5014670;28;20411;-51
2022/05/09 04:39:44;;;;;;;9.53;3.10;;;;;;;;;;5014716;28;20395;-53
2022/05/09 04:42:11;;;;;;;9.13;3.03;;;;;;;;;;5014248;28;20417;-51
2022/05/09 04:44:38;;;;;;;8.98;2.92;;;;;;;;;;5013587;28;20687;-53
2022/05/09 04:47:04;;;;;;;8.07;2.90;;;;;;;;;;5012825;28;20395;-56
2022/05/09 04:49:29;;;;;;;6.60;2.80;;;;;;;;;;5010068;28;20676;-53
2022/05/09 04:51:55;;;;;;;7.82;2.90;;;;;;;;;;5024947;28;20795;-54
2022/05/09 04:54:21;;;;;;;6.57;2.60;;;;;;;;;;5009935;28;20989;-52
2022/05/09 04:56:47;;;;;;;9.30;2.95;;;;;;;;;;5007545;28;20406;-53
2022/05/09 04:59:13;;;;;;;7.10;2.97;;;;;;;;;;5007353;28;20395;-56
2022/05/09 05:01:39;;;;;;;7.67;3.00;;;;;;;;;;5006426;28;20414;-55
2022/05/09 05:04:07;;;;;;;6.30;2.67;;;;;;;;;;5007858;28;20642;-51
2022/05/09 05:06:33;;;;;;;5.68;2.60;;;;;;;;;;5009910;28;20403;-53
2022/05/09 05:08:59;;;;;;;4.53;2.58;;;;;;;;;;5009365;28;20383;-54
2022/05/09 05:11:25;;;;;;;7.80;2.75;;;;;;;;;;5009221;28;20395;-52
2022/05/09 05:13:51;;;;;;;6.25;2.75;;;;;;;;;;5008993;28;20457;-53
2022/05/09 05:16:17;;;;;;;9.00;2.92;;;;;;;;;;5005822;28;20398;-53
2022/05/09 05:18:44;;;;;;;5.20;2.35;;;;;;;;;;5006261;28;20391;-53
2022/05/09 05:21:11;;;;;;;5.53;2.40;;;;;;;;;;5005899;28;20917;-55
2022/05/09 05:23:38;;;;;;;8.13;2.80;;;;;;;;;;5005530;28;20387;-55
2022/05/09 05:26:04;;;;;;;6.45;2.38;;;;;;;;;;5023001;28;20482;-55
2022/05/09 05:28:32;;;;;;;7.40;2.50;;;;;;;;;;5005180;28;20430;-55
2022/05/09 05:31:10;;;;;;;6.63;2.78;;;;;;;;;;5005190;28;20399;-53
2022/05/09 05:33:36;;;;;;;5.90;2.70;;;;;;;;;;5008132;28;20486;-51
2022/05/09 05:36:02;;;;;;;6.05;2.53;;;;;;;;;;5007896;28;20417;-52
2022/05/09 05:38:28;;;;;;;5.85;2.47;;;;;;;;;;5025735;28;20426;-55
2022/05/09 05:40:57;;;;;;;4.50;2.03;;;;;;;;;;5028200;28;20415;-50
2022/05/09 05:43:23;;;;;;;5.47;2.50;;;;;;;;;;5010163;28;20383;-52
2022/05/09 05:45:54;;;;;;;6.63;2.75;;;;;;;;;;5010846;28;20589;-52
2022/05/09 05:48:20;;;;;;;6.22;2.60;;;;;;;;;;5009965;28;20549;-52
2022/05/09 05:50:46;;;;;;;9.60;2.90;;;;;;;;;;5009566;28;20525;-52
2022/05/09 05:53:12;;;;;;;8.32;2.80;;;;;;;;;;5008431;28;20418;-56
2022/05/09 05:55:38;;;;;;;6.38;2.50;;;;;;;;;;5007633;28;20379;-56
2022/05/09 05:58:04;;;;;;;5.93;2.22;;;;;;;;;;5007523;28;20380;-52
2022/05/09 06:00:30;;;;;;;6.45;2.40;;;;;;;;;;5006525;28;20904;-56
2022/05/09 06:02:56;;;;;;;5.82;2.28;;;;;;;;;;5005563;28;20389;-54
2022/05/09 06:05:22;;;;;;;7.00;2.70;;;;;;;;;;5007058;28;20454;-54
2022/05/09 06:07:52;;;;;;;7.45;2.67;;;;;;;;;;5004923;28;20506;-52
2022/05/09 06:10:18;;;;;;;7.95;2.75;;;;;;;;;;5006012;28;20411;-52
2022/05/09 06:12:44;;;;;;;5.90;2.55;;;;;;;;;;5010923;28;20656;-53
2022/05/09 06:15:28;;;;;;;7.63;2.80;;;;;;;;;;5005261;28;20380;-55
2022/05/09 06:17:56;;;;;;;7.18;2.30;;;;;;;;;;5004362;28;20493;-53
2022/05/09 06:20:22;;;;;;;7.70;2.40;;;;;;;;;;5018568;28;20383;-53
2022/05/09 06:22:48;;;;;;;4.10;1.80;;;;;;;;;;5000377;28;20971;-51
2022/05/09 06:25:16;;;;;;;7.80;2.55;;;;;;;;;;5004077;28;20725;-53
2022/05/09 06:27:42;;;;;;;5.80;2.10;;;;;;;;;;5005184;28;20707;-56
2022/05/09 06:30:10;;;;;;;5.97;2.30;;;;;;;;;;5004505;28;20403;-54
2022/05/09 06:32:37;;;;;;;6.50;2.20;;;;;;;;;;5021951;28;20510;-55
2022/05/09 06:35:07;;;;;;;6.47;2.53;;;;;;;;;;5004621;28;20484;-51
2022/05/09 06:37:33;;;;;;;6.85;2.70;;;;;;;;;;5003819;28;20482;-53
2022/05/09 06:40:00;;;;;;;5.22;1.95;;;;;;;;;;5003934;28;20411;-55
2022/05/09 06:42:27;;;;;;;8.20;2.65;;;;;;;;;;5004228;28;20387;-54
2022/05/09 06:44:53;;;;;;;9.57;2.67;;;;;;;;;;5004298;28;20482;-55
2022/05/09 06:47:21;;;;;;;5.78;2.45;;;;;;;;;;5003177;28;20422;-53
2022/05/09 06:49:47;;;;;;;7.35;2.47;;;;;;;;;;5003991;28;20423;-54
2022/05/09 06:52:13;;;;;;;9.98;2.33;;;;;;;;;;5005308;28;20609;-53
2022/05/09 06:54:39;;;;;;;6.03;2.25;;;;;;;;;;5025872;28;20787;-55
2022/05/09 06:57:06;;;;;;;5.13;2.30;;;;;;;;;;5027879;28;20822;-56
2022/05/09 06:59:33;;;;;;;6.15;2.13;;;;;;;;;;5006651;28;20421;-54
2022/05/09 07:01:59;;;;;;;3.70;1.70;;;;;;;;;;5025284;28;20619;-53
2022/05/09 07:04:25;;;;;;;8.38;2.47;;;;;;;;;;5025396;28;20386;-55
2022/05/09 07:06:51;;;;;;;4.28;1.80;;;;;;;;;;5008641;28;20494;-52
2022/05/09 07:09:17;;;;;;;9.80;2.85;;;;;;;;;;5024474;28;20670;-55
2022/05/09 07:11:43;;;;;;;4.53;2.00;;;;;;;;;;5006687;28;20415;-55
2022/05/09 07:14:10;;;;;;;7.27;2.47;;;;;;;;;;5006261;28;20382;-55
2022/05/09 07:16:36;;;;;;;6.27;2.40;;;;;;;;;;5005531;28;20445;-55
2022/05/09 07:19:04;;;;;;;6.38;2.20;;;;;;;;;;5021254;28;20443;-52
2022/05/09 07:21:30;;;;;;;5.80;2.25;;;;;;;;;;5008168;28;20577;-54
2022/05/09 07:23:56;;;;;;;6.82;2.20;;;;;;;;;;5024882;28;20394;-53
2022/05/09 07:26:22;;;;;;;3.08;1.90;;;;;;;;;;5005043;28;20387;-54
2022/05/09 07:28:49;;;;;;;6.27;1.97;;;;;;;;;;5023949;28;20825;-56
2022/05/09 07:31:15;;;;;;;5.22;2.35;;;;;;;;;;5005334;28;20829;-52
2022/05/09 07:33:43;;;;;;;4.05;2.03;;;;;;;;;;5021949;28;20456;-52
2022/05/09 07:36:09;;;;;;;6.82;2.25;;;;;;;;;;5023781;28;20387;-54
2022/05/09 07:38:35;;;;;;;6.15;2.13;;;;;;;;;;5003860;28;20553;-52
2022/05/09 07:41:00;;;;;;;4.95;1.90;;;;;;;;;;5022762;28;20414;-55
2022/05/09 07:43:28;;;;;;;6.40;2.10;;;;;;;;;;5006699;28;20787;-51
2022/05/09 07:45:55;;;;;;;5.13;1.90;;;;;;;;;;5023607;28;20379;-55
2022/05/09 07:48:21;;;;;;;3.80;1.73;;;;;;;;;;5023822;28;20383;-55
2022/05/09 07:50:48;;;;;;;3.40;1.63;;;;;;;;;;5006584;28;20518;-50
2022/05/09 07:53:19;;;;;;;5.63;1.80;;;;;;;;;;5005195;28;20383;-54
2022/05/09 07:55:45;;;;;;;3.60;1.97;;;;;;;;;;5006703;28;20666;-53
2022/05/09 07:58:12;;;;;;;5.37;2.00;;;;;;;;;;5004823;28;20379;-52
2022/05/09 08:00:39;;;;;;;6.43;2.50;;;;;;;;;;5005622;28;20681;-51
2022/05/09 08:03:05;;;;;;;5.10;1.88;;;;;;;;;;5005014;28;20391;-54
2022/05/09 08:05:32;;;;;;;5.55;2.22;;;;;;;;;;5023981;28;20804;-55
2022/05/09 08:07:58;;;;;;;8.10;2.53;;;;;;;;;;5007166;28;20822;-54
2022/05/09 08:10:24;;;;;;;6.00;2.23;;;;;;;;;;5007871;28;20851;-56
2022/05/09 08:12:50;;;;;;;3.38;1.70;;;;;;;;;;5006745;28;20700;-55
2022/05/09 08:15:18;;;;;;;4.13;1.83;;;;;;;;;;5027146;28;20391;-52
2022/05/09 08:17:49;;;;;;;4.53;1.80;;;;;;;;;;5009490;28;20379;-53
2022/05/09 08:20:15;;;;;;;9.25;2.67;;;;;;;;;;5010506;28;20382;-52
2022/05/09 08:22:41;;;;;;;4.47;2.00;;;;;;;;;;5009709;28;20500;-53
2022/05/09 08:25:08;;;;;;;3.67;2.00;;;;;;;;;;5009127;28;20425;-56
2022/05/09 08:27:34;;;;;;;7.45;2.30;;;;;;;;;;5011035;28;20391;-56
2022/05/09 08:30:00;;;;;;;5.75;2.00;;;;;;;;;;5009381;28;20601;-52
2022/05/09 08:32:27;;;;;;;8.47;2.20;;;;;;;;;;5011769;28;20594;-54
2022/05/09 08:34:53;;;;;;;4.47;1.65;;;;;;;;;;5033781;28;20482;-56
2022/05/09 08:37:20;;;;;;;5.10;1.90;;;;;;;;;;5016199;28;20411;-56
2022/05/09 08:39:46;;;;;;;4.63;1.85;;;;;;;;;;5015743;28;20387;-55
2022/05/09 08:42:15;;;;;;;5.03;1.80;;;;;;;;;;5016357;28;20387;-54
2022/05/09 08:45:00;;;;;;;4.47;1.90;;;;;;;;;;5032886;28;20872;-54
2022/05/09 08:47:49;;;;;;;6.65;2.65;;;;;;;;;;5015307;28;20391;-54
2022/05/09 08:50:29;;;;;;;8.70;2.65;;;;;;;;;;5011709;28;20765;-62
2022/05/09 08:53:03;;;;;;;9.52;2.38;;;;;;;;;;5011642;28;20397;-63
2022/05/09 08:55:38;;;;;;;9.30;2.40;;;;;;;;;;5010942;28;20376;-57
2022/05/09 08:58:07;;;;;;;6.82;2.35;;;;;;;;;;5009448;28;20450;-53
2022/05/09 09:00:33;;;;;;;7.38;2.40;;;;;;;;;;5008534;28;20447;-55
2022/05/09 09:03:01;;;;;;;5.83;2.27;;;;;;;;;;5007939;28;20504;-55
2022/05/09 09:05:32;;;;;;;8.30;2.53;;;;;;;;;;5009149;28;20392;-53
2022/05/09 09:08:07;;;;;;;6.25;2.30;;;;;;;;;;5008691;28;20971;-55
2022/05/09 09:10:39;;;;;;;8.77;2.50;;;;;;;;;;5010662;28;20913;-56
2022/05/09 09:13:19;;;;;;;7.47;2.30;;;;;;;;;;5008413;28;20388;-56
2022/05/09 09:15:45;;;;;;;7.47;2.85;;;;;;;;;;5008581;28;20408;-54
2022/05/09 09:18:29;;;;;;;6.97;2.10;;;;;;;;;;5010768;28;20420;-51
2022/05/09 09:20:55;;;;;;;5.95;2.03;;;;;;;;;;5008797;28;20504;-56
2022/05/09 09:23:32;;;;;;;7.47;2.97;;;;;;;;;;5007516;28;20477;-51
2022/05/09 09:26:22;;;;;;;8.93;2.45;;;;;;;;;;5007545;28;20484;-55
2022/05/09 09:28:50;;;;;;;8.10;2.40;;;;;;;;;;5009322;28;20387;-54
2022/05/09 09:31:19;;;;;;;8.32;2.60;;;;;;;;;;5007996;28;20420;-56
2022/05/09 09:33:50;;;;;;;7.55;2.33;;;;;;;;;;5009904;28;20401;-59
2022/05/09 09:36:16;;;;;;;7.22;2.30;;;;;;;;;;5009722;28;20789;-56
2022/05/09 09:38:55;;;;;;;5.88;2.17;;;;;;;;;;5012025;28;20395;-54
2022/05/09 09:41:30;;;;;;;5.90;2.08;;;;;;;;;;5013089;28;20437;-52
2022/05/09 09:44:23;;;;;;;7.93;2.45;;;;;;;;;;5012784;28;21029;-55
2022/05/09 09:46:59;;;;;;;6.97;2.25;;;;;;;;;;5007799;28;20738;-55
2022/05/09 09:49:24;;;;;;;6.63;2.30;;;;;;;;;;5012683;28;20524;-54
2022/05/09 09:51:51;;;;;;;6.13;2.33;;;;;;;;;;5015686;28;20501;-53
2022/05/09 09:54:18;;;;;;;4.55;2.03;;;;;;;;;;5015701;28;20893;-55
2022/05/09 09:56:44;;;;;;;8.93;2.65;;;;;;;;;;5033060;28;20387;-54
2022/05/09 09:59:18;;;;;;;7.33;2.67;;;;;;;;;;5032557;28;20379;-53
2022/05/09 10:01:44;;;;;;;6.70;2.33;;;;;;;;;;5013596;28;20383;-54
2022/05/09 10:04:10;;;;;;;6.35;2.40;;;;;;;;;;5031475;28;20464;-56
2022/05/09 10:07:03;;;;;;;5.75;2.08;;;;;;;;;;5016648;28;20406;-56
2022/05/09 10:09:32;;;;;;;6.40;2.45;;;;;;;;;;5003087;28;20498;-53
2022/05/09 10:12:14;;;;;;;7.22;2.50;;;;;;;;;;5030966;28;21160;-50
2022/05/09 10:14:40;;;;;;;8.52;2.33;;;;;;;;;;5013661;28;20383;-50
2022/05/09 10:17:16;;;;;;;2.95;1.55;;;;;;;;;;5031478;28;20397;-53
2022/05/09 10:19:43;;;;;;;4.77;2.10;;;;;;;;;;5014221;28;21123;-53
2022/05/09 10:24:57;;;;;;;4.67;1.93;;;;;;;;;;5029338;28;20399;-54
2022/05/09 10:27:23;;;;;;;5.88;2.28;;;;;;;;;;5029614;28;20537;-49
2022/05/09 10:29:51;;;;;;;4.90;1.92;;;;;;;;;;5029353;28;20840;-51
2022/05/09 10:32:21;;;;;;;4.53;2.13;;;;;;;;;;5013638;28;20388;-53
2022/05/09 10:35:01;;;;;;;5.65;2.10;;;;;;;;;;5012129;28;20387;-52
2022/05/09 10:37:44;;;;;;;3.60;1.90;;;;;;;;;;5011133;28;20460;-51
2022/05/09 10:40:22;;;;;;;5.55;2.00;;;;;;;;;;5011638;28;20428;-54
2022/05/09 10:42:51;;;;;;;4.05;2.00;;;;;;;;;;5028784;28;20383;-52
2022/05/09 10:45:19;;;;;;;7.90;2.10;;;;;;;;;;5011876;28;20398;-53
2022/05/09 10:47:52;;;;;;;6.78;2.33;;;;;;;;;;5012131;28;20698;-53
2022/05/09 10:50:19;;;;;;;6.13;2.20;;;;;;;;;;5008356;28;21162;-52
2022/05/09 10:52:59;;;;;;;5.85;2.30;;;;;;;;;;5008756;28;20416;-53
2022/05/09 10:55:28;;;;;;;4.32;1.75;;;;;;;;;;5012151;28;20389;-54
2022/05/09 10:57:58;;;;;;;4.23;1.77;;;;;;;;;;5013163;28;20461;-50
2022/05/09 11:00:26;;;;;;;9.38;2.85;;;;;;;;;;5015561;28;20392;-55
2022/05/09 11:03:01;;;;;;;9.43;2.85;;;;;;;;;;5015085;28;20416;-54
2022/05/09 11:05:33;;;;;;;5.88;2.58;;;;;;;;;;5014882;28;20638;-51
2022/05/09 11:08:05;;;;;;;8.73;2.70;;;;;;;;;;5014694;28;20733;-54
2022/05/09 11:10:39;;;;;;;5.32;2.10;;;;;;;;;;5015052;28;20716;-55
2022/05/09 11:13:08;;;;;;;5.32;2.05;;;;;;;;;;5014155;28;21013;-54
2022/05/09 11:15:43;;;;;;;9.63;3.07;;;;;;;;;;5013013;28;20705;-53
2022/05/09 11:18:09;;;;;;;10.68;2.75;;;;;;;;;;5012215;28;20397;-51
2022/05/09 11:20:43;;;;;;;9.38;2.40;;;;;;;;;;5012745;28;20396;-55
2022/05/09 11:23:29;;;;;;;8.48;2.78;;;;;;;;;;5013284;28;21009;-54
2022/05/09 11:25:58;;;;;;;5.32;2.60;;;;;;;;;;5011507;28;20511;-52
2022/05/09 11:28:34;;;;;;;4.88;2.33;;;;;;;;;;5011200;28;20428;-53
2022/05/09 11:31:18;;;;;;;7.27;2.53;;;;;;;;;;5010632;28;20550;-52
2022/05/09 11:33:50;;;;;;;4.22;2.05;;;;;;;;;;5011236;28;20471;-53
2022/05/09 11:36:34;;;;;;;6.85;2.13;;;;;;;;;;5009721;28;20396;-50
2022/05/09 11:39:00;;;;;;;4.63;2.10;;;;;;;;;;5012623;28;20423;-55
2022/05/09 11:41:29;;;;;;;6.72;2.28;;;;;;;;;;5010389;28;20791;-55
2022/05/09 11:43:59;;;;;;;5.87;2.27;;;;;;;;;;5010736;28;20397;-54
2022/05/09 11:46:34;;;;;;;5.97;2.20;;;;;;;;;;5012425;28;20407;-51
2022/05/09 11:49:06;;;;;;;6.97;2.60;;;;;;;;;;5008381;28;20381;-55
2022/05/09 11:51:32;;;;;;;6.90;2.35;;;;;;;;;;5027959;28;20513;-53
2022/05/09 11:54:01;;;;;;;5.00;2.00;;;;;;;;;;5029782;28;20387;-54
2022/05/09 11:56:28;;;;;;;5.07;1.90;;;;;;;;;;5012496;28;20437;-51
2022/05/09 11:58:55;;;;;;;6.15;2.63;;;;;;;;;;5012881;28;20384;-55
2022/05/09 12:01:40;;;;;;;7.40;2.33;;;;;;;;;;5012763;28;20383;-55
2022/05/09 12:04:27;;;;;;;4.80;2.33;;;;;;;;;;5014347;28;20387;-55
2022/05/09 12:06:53;;;;;;;7.10;2.53;;;;;;;;;;5030617;28;20391;-53
2022/05/09 12:09:39;;;;;;;4.78;2.10;;;;;;;;;;5029525;28;20730;-53
2022/05/09 12:12:05;;;;;;;6.47;2.53;;;;;;;;;;5009440;28;20555;-53
2022/05/09 12:14:46;;;;;;;2.35;1.70;;;;;;;;;;5025733;28;20371;-55
2022/05/09 12:17:17;;;;;;;3.38;1.45;;;;;;;;;;5005881;28;20391;-54
2022/05/09 12:19:43;;;;;;;8.15;2.45;;;;;;;;;;5022220;28;20440;-56
2022/05/09 12:22:24;;;;;;;9.02;2.47;;;;;;;;;;5023024;28;20464;-51
2022/05/09 12:24:54;;;;;;;5.05;2.08;;;;;;;;;;5009872;28;20418;-53
2022/05/09 12:27:40;;;;;;;3.70;1.92;;;;;;;;;;5027775;28;20367;-52
2022/05/09 12:30:27;;;;;;;5.67;2.20;;;;;;;;;;5003857;28;20395;-54
2022/05/09 12:32:53;;;;;;;3.10;1.58;;;;;;;;;;5017961;28;20398;-53
2022/05/09 12:35:19;;;;;;;4.80;1.98;;;;;;;;;;5004117;28;20469;-56
2022/05/09 12:37:46;;;;;;;3.65;2.10;;;;;;;;;;5004484;28;20395;-55
2022/05/09 12:40:24;;;;;;;4.78;1.90;;;;;;;;;;5005965;28;20411;-56
2022/05/09 12:42:53;;;;;;;5.07;1.90;;;;;;;;;;5022621;28;20826;-54
2022/05/09 12:45:19;;;;;;;7.07;2.38;;;;;;;;;;5005334;28;20382;-54
2022/05/09 12:47:47;;;;;;;5.93;2.63;;;;;;;;;;5022669;28;20387;-52
2022/05/09 12:50:17;;;;;;;6.30;2.20;;;;;;;;;;5002065;28;20575;-50
2022/05/09 12:52:49;;;;;;;4.43;2.08;;;;;;;;;;5000704;28;20461;-55
2022/05/09 12:58:00;;;;;;;7.82;2.20;;;;;;;;;;5021935;28;20792;-55
2022/05/09 13:00:27;;;;;;;5.45;2.00;;;;;;;;;;5005151;28;20791;-54
2022/05/09 13:02:53;;;;;;;5.60;2.30;;;;;;;;;;5004151;28;20398;-53
2022/05/09 13:05:32;;;;;;;5.05;2.47;;;;;;;;;;5019327;28;20399;-55
2022/05/09 13:08:02;;;;;;;4.85;1.85;;;;;;;;;;5018615;28;20686;-55
2022/05/09 13:10:29;;;;;;;5.00;2.03;;;;;;;;;;5022484;28;20399;-53
2022/05/09 13:13:03;;;;;;;5.15;2.40;;;;;;;;;;5023838;28;20381;-56
2022/05/09 13:15:29;;;;;;;4.43;1.90;;;;;;;;;;5007943;28;20486;-52
2022/05/09 13:17:58;;;;;;;4.25;2.08;;;;;;;;;;5002334;28;20379;-55
2022/05/09 13:20:25;;;;;;;6.07;2.08;;;;;;;;;;5001886;28;20382;-56
2022/05/09 13:23:02;;;;;;;3.00;1.65;;;;;;;;;;5002941;28;20552;-52
2022/05/09 13:25:28;;;;;;;7.03;2.70;;;;;;;;;;5009277;28;20442;-54
2022/05/09 13:27:56;;;;;;;5.00;2.50;;;;;;;;;;5005425;28;20481;-53
2022/05/09 13:30:22;;;;;;;5.13;2.37;;;;;;;;;;5006011;28;20403;-55
2022/05/09 13:32:52;;;;;;;6.18;2.30;;;;;;;;;;5006163;28;20719;-53
2022/05/09 13:35:30;;;;;;;3.63;1.70;;;;;;;;;;5025993;28;20682;-54
2022/05/09 13:37:56;;;;;;;6.70;2.30;;;;;;;;;;5006731;28;20486;-54
2022/05/09 13:40:23;;;;;;;5.93;2.50;;;;;;;;;;5021137;28;20754;-53
2022/05/09 13:42:50;;;;;;;4.85;2.40;;;;;;;;;;5001586;28;20471;-55
2022/05/09 13:45:28;;;;;;;4.57;2.38;;;;;;;;;;5002199;28;20851;-53
2022/05/09 13:47:56;;;;;;;5.23;2.00;;;;;;;;;;5018331;28;20648;-54
2022/05/09 13:50:23;;;;;;;4.78;2.28;;;;;;;;;;4999047;28;20680;-55
2022/05/09 13:52:50;;;;;;;4.47;2.00;;;;;;;;;;5001721;28;20502;-56
2022/05/09 13:55:31;;;;;;;8.55;2.65;;;;;;;;;;5003551;28;20390;-53
2022/05/09 13:57:59;;;;;;;4.43;2.05;;;;;;;;;;5004403;28;20380;-55
2022/05/09 14:00:38;;;;;;;4.88;2.28;;;;;;;;;;5006366;28;20467;-54
2022/05/09 14:03:24;;;;;;;7.95;2.70;;;;;;;;;;5008326;28;20411;-54
2022/05/09 14:05:52;;;;;;;6.68;2.80;;;;;;;;;;5011079;28;20457;-50
2022/05/09 14:08:19;;;;;;;6.63;2.40;;;;;;;;;;5022924;28;20509;-54
2022/05/09 14:10:46;;;;;;;4.43;2.17;;;;;;;;;;5005330;28;20462;-56
2022/05/09 14:13:25;;;;;;;6.25;2.47;;;;;;;;;;5002717;28;20409;-55
2022/05/09 14:15:53;;;;;;;4.28;2.10;;;;;;;;;;5019925;28;20643;-54
2022/05/09 14:18:19;;;;;;;4.55;2.20;;;;;;;;;;5019050;28;20416;-55
2022/05/09 14:20:46;;;;;;;7.57;2.47;;;;;;;;;;5020063;28;20402;-55
2022/05/09 14:23:14;;;;;;;3.67;2.10;;;;;;;;;;5020771;28;20794;-55
2022/05/09 14:31:21;;;;;;;4.32;2.40;;;;;;;;;;5021132;28;20421;-56
2022/05/09 14:33:47;;;;;;;3.97;2.13;;;;;;;;;;5021391;28;20648;-54
2022/05/09 14:36:31;;;;;;;3.65;2.20;;;;;;;;;;5002878;28;20398;-55
2022/05/09 14:38:57;;;;;;;3.33;2.13;;;;;;;;;;5002528;28;20505;-54
2022/05/09 14:41:44;;;;;;;4.47;2.10;;;;;;;;;;5004932;28;20672;-54
2022/05/09 14:44:14;;;;;;;5.90;2.60;;;;;;;;;;5022672;28;20403;-56
2022/05/09 14:46:54;;;;;;;5.28;2.50;;;;;;;;;;5023125;28;20379;-56
2022/05/09 14:49:20;;;;;;;5.17;2.47;;;;;;;;;;5003249;28;20391;-56
2022/05/09 14:51:57;;;;;;;6.40;2.00;;;;;;;;;;5006453;28;20411;-56
2022/05/09 14:54:23;;;;;;;4.53;2.05;;;;;;;;;;5022413;28;20539;-57
2022/05/09 14:59:35;;;;;;;4.10;2.20;;;;;;;;;;5022413;28;20446;-55
2022/05/09 15:02:12;;;;;;;4.68;2.08;;;;;;;;;;5019883;28;20465;-56
2022/05/09 15:04:38;;;;;;;6.03;2.47;;;;;;;;;;5003740;28;20391;-55
2022/05/09 15:07:05;;;;;;;3.47;2.08;;;;;;;;;;5020702;28;20464;-56
2022/05/09 15:09:32;;;;;;;5.38;2.28;;;;;;;;;;5003232;28;20495;-56
2022/05/09 15:12:01;;;;;;;6.18;2.22;;;;;;;;;;5004867;28;20449;-56
2022/05/09 15:14:34;;;;;;;4.85;2.30;;;;;;;;;;5004738;28;20752;-54
2022/05/09 15:17:00;;;;;;;5.15;2.22;;;;;;;;;;5003767;28;20379;-53